Time;durP1;ratioP1;P1;durP2;ratioP2;P2;SDS_P1;SDS_P2;PMS_P1;PMS_P2;Temp;Humidity;BMP_temperature;BMP_pressure;BME280_temperature;BME280_humidity;BME280_pressure;Samples;Min_cycle;Max_cycle;Signal;HPM_P1;HPM_P2
2023/02/24 00:02:04;;;;;;;12.13;1.42;;;;;;;5.15;100.00;100381.69;5145441;28;20193;-72
2023/02/24 00:04:38;;;;;;;16.58;1.80;;;;;;;5.18;100.00;100381.63;5141872;28;20534;-72
2023/02/24 00:07:10;;;;;;;13.93;1.70;;;;;;;5.22;100.00;100375.56;5148404;28;20029;-72
2023/02/24 00:09:43;;;;;;;24.65;2.80;;;;;;;5.28;100.00;100366.78;5148809;28;20113;-72
2023/02/24 00:12:15;;;;;;;10.95;1.73;;;;;;;5.31;100.00;100365.00;5147058;28;20026;-72
2023/02/24 00:14:46;;;;;;;18.52;1.92;;;;;;;5.22;100.00;100366.91;5152025;28;20033;-73
2023/02/24 00:17:16;;;;;;;13.87;2.07;;;;;;;5.20;100.00;100371.25;5141298;28;20023;-72
2023/02/24 00:19:46;;;;;;;10.65;1.90;;;;;;;5.18;100.00;100366.09;5140570;28;20046;-72
2023/02/24 00:22:16;;;;;;;11.38;1.48;;;;;;;5.14;100.00;100367.03;5146912;28;20488;-73
2023/02/24 00:24:47;;;;;;;9.63;1.60;;;;;;;5.19;100.00;100362.63;5140675;28;20089;-73
2023/02/24 00:27:17;;;;;;;14.98;2.08;;;;;;;5.07;100.00;100357.69;5148481;28;20396;-72
2023/02/24 00:29:48;;;;;;;11.43;1.75;;;;;;;5.18;100.00;100350.56;5147363;28;20034;-72
2023/02/24 00:32:18;;;;;;;12.82;1.42;;;;;;;5.12;100.00;100361.03;5142713;28;20027;-74
2023/02/24 00:34:48;;;;;;;11.73;1.90;;;;;;;5.22;100.00;100341.88;5137275;28;20118;-72
2023/02/24 00:37:22;;;;;;;14.40;2.22;;;;;;;5.22;100.00;100347.06;5131428;28;20065;-72
2023/02/24 00:39:57;;;;;;;16.05;2.15;;;;;;;5.30;100.00;100350.34;5148020;28;20052;-72
2023/02/24 00:42:27;;;;;;;7.77;1.53;;;;;;;5.16;100.00;100348.91;5149769;28;20026;-71
2023/02/24 00:44:57;;;;;;;10.75;1.65;;;;;;;5.14;100.00;100343.72;5147132;28;20537;-72
2023/02/24 00:47:28;;;;;;;13.88;2.08;;;;;;;5.29;100.00;100340.88;5139761;28;20102;-72
2023/02/24 00:49:58;;;;;;;9.70;1.73;;;;;;;5.20;100.00;100333.28;5143999;28;20030;-72
2023/02/24 00:52:29;;;;;;;11.68;2.00;;;;;;;4.98;100.00;100333.69;5147440;28;20444;-73
2023/02/24 00:54:59;;;;;;;10.10;2.30;;;;;;;5.16;100.00;100333.34;5139769;28;20037;-73
2023/02/24 00:57:32;;;;;;;11.57;1.65;;;;;;;5.16;100.00;100333.34;5139435;28;20026;-72
2023/02/24 01:00:05;;;;;;;8.35;1.60;;;;;;;5.04;100.00;100324.06;5255401;23;20362;-73
2023/02/24 01:02:39;;;;;;;6.65;1.50;;;;;;;4.96;100.00;100314.72;5123390;28;20033;-76
2023/02/24 01:05:11;;;;;;;18.67;2.25;;;;;;;5.06;100.00;100301.59;5133938;28;20027;-74
2023/02/24 01:07:41;;;;;;;10.13;1.40;;;;;;;5.06;100.00;100313.66;5147346;28;20058;-76
2023/02/24 01:10:12;;;;;;;17.20;1.98;;;;;;;4.96;100.00;100294.84;5125290;28;20026;-74
2023/02/24 01:12:48;;;;;;;13.02;2.30;;;;;;;4.98;100.00;100293.09;5144900;28;20029;-73
2023/02/24 01:15:21;;;;;;;12.60;1.90;;;;;;;4.95;100.00;100295.75;5136670;28;20019;-74
2023/02/24 01:17:51;;;;;;;10.77;1.85;;;;;;;4.92;100.00;100290.63;5129987;28;20279;-74
2023/02/24 01:20:21;;;;;;;16.58;2.00;;;;;;;4.95;100.00;100295.75;5138399;28;20027;-75
2023/02/24 01:22:52;;;;;;;14.38;1.65;;;;;;;5.01;100.00;100289.59;5122386;28;20130;-75
2023/02/24 01:25:22;;;;;;;16.40;2.20;;;;;;;4.77;100.00;100302.97;5140428;28;20026;-73
2023/02/24 01:27:52;;;;;;;17.63;2.47;;;;;;;4.76;100.00;100299.53;5150057;28;20365;-75
2023/02/24 01:30:23;;;;;;;18.40;2.08;;;;;;;4.72;100.00;100282.34;5147333;28;20272;-75
2023/02/24 01:32:53;;;;;;;14.18;1.60;;;;;;;4.67;100.00;100288.47;5139518;28;20034;-74
2023/02/24 01:35:24;;;;;;;7.32;1.30;;;;;;;4.66;100.00;100282.44;5142249;28;20034;-75
2023/02/24 01:37:54;;;;;;;13.20;2.05;;;;;;;4.68;100.00;100285.00;5129380;28;20073;-72
2023/02/24 01:40:25;;;;;;;8.80;1.52;;;;;;;4.73;100.00;100284.06;5149959;28;20477;-72
2023/02/24 01:42:56;;;;;;;12.20;1.70;;;;;;;4.76;100.00;100278.81;5149519;28;20096;-73
2023/02/24 01:45:27;;;;;;;12.88;2.03;;;;;;;4.68;100.00;100283.28;5146653;28;20085;-73
2023/02/24 01:48:04;;;;;;;6.90;1.40;;;;;;;4.71;100.00;100282.34;5138941;28;20030;-75
2023/02/24 01:50:35;;;;;;;13.13;2.83;;;;;;;4.74;100.00;100279.72;5135928;28;20492;-72
2023/02/24 01:53:07;;;;;;;13.88;2.10;;;;;;;4.87;100.00;100273.44;5137944;28;20027;-74
2023/02/24 01:55:45;;;;;;;11.20;2.60;;;;;;;4.77;100.00;100267.59;5120794;28;20071;-73
2023/02/24 01:58:27;;;;;;;8.77;1.90;;;;;;;4.82;100.00;100270.09;5128016;28;20027;-73
2023/02/24 02:00:57;;;;;;;13.70;1.73;;;;;;;4.88;100.00;100265.69;5122261;28;20126;-73
2023/02/24 02:03:32;;;;;;;14.75;1.95;;;;;;;4.87;100.00;100266.56;5138699;28;20110;-73
2023/02/24 02:06:06;;;;;;;10.13;1.77;;;;;;;4.81;100.00;100255.44;5140887;28;20058;-72
2023/02/24 02:08:39;;;;;;;13.10;1.85;;;;;;;4.71;100.00;100256.47;5139339;28;20334;-73
2023/02/24 02:11:13;;;;;;;16.65;2.17;;;;;;;4.88;100.00;100250.13;5139645;28;20548;-73
2023/02/24 02:13:45;;;;;;;11.10;2.30;;;;;;;4.72;100.00;100247.84;5138018;28;20026;-73
2023/02/24 02:16:36;;;;;;;13.95;2.33;;;;;;;4.87;100.00;100245.84;5124619;28;20027;-75
2023/02/24 02:19:38;;;;;;;12.80;1.90;;;;;;;4.90;100.00;100235.44;5138909;28;20023;-73
2023/02/24 02:22:22;;;;;;;23.27;2.30;;;;;;;4.83;100.00;100233.81;5138366;28;20555;-74
2023/02/24 02:25:08;;;;;;;18.15;2.50;;;;;;;5.03;100.00;100230.88;5136121;28;20043;-73
2023/02/24 02:28:02;;;;;;;13.18;2.45;;;;;;;4.98;100.00;100225.78;5124628;28;20022;-74
2023/02/24 02:30:42;;;;;;;11.93;2.53;;;;;;;4.94;100.00;100226.72;5143052;28;20027;-73
2023/02/24 02:33:43;;;;;;;15.95;2.53;;;;;;;4.82;100.00;100221.75;5134888;28;20049;-73
2023/02/24 02:36:25;;;;;;;19.20;2.70;;;;;;;4.96;100.00;100216.34;5138347;28;20165;-74
2023/02/24 02:39:25;;;;;;;11.10;2.50;;;;;;;4.95;100.00;100206.88;5142772;28;20435;-77
2023/02/24 02:42:13;;;;;;;10.50;2.08;;;;;;;4.96;100.00;100199.06;5134554;28;20035;-73
2023/02/24 02:44:48;;;;;;;13.98;1.80;;;;;;;4.97;100.00;100200.75;5140193;28;20102;-73
2023/02/24 02:47:25;;;;;;;15.32;2.58;;;;;;;4.84;100.00;100201.88;5137645;28;20520;-74
2023/02/24 02:50:07;;;;;;;10.35;1.92;;;;;;;4.85;100.00;100200.16;5138627;28;20031;-74
2023/02/24 02:52:54;;;;;;;13.23;2.00;;;;;;;4.87;100.00;100191.50;5140599;28;20034;-75
2023/02/24 02:55:45;;;;;;;13.82;1.88;;;;;;;4.88;100.00;100195.78;5135299;28;20523;-73
2023/02/24 02:58:22;;;;;;;14.05;1.75;;;;;;;4.90;100.00;100187.97;5139234;28;20077;-73
2023/02/24 03:01:00;;;;;;;22.60;2.33;;;;;;;5.01;100.00;100191.22;5141111;28;20034;-76
2023/02/24 03:03:36;;;;;;;9.88;1.63;;;;;;;4.94;100.00;100185.28;5137442;28;20477;-76
2023/02/24 03:06:15;;;;;;;;;;;;;;;4.79;100.00;100175.22;5139102;28;20431;-73
2023/02/24 03:09:00;;;;;;;12.63;1.95;;;;;;;4.92;100.00;100176.72;5136330;28;20407;-72
2023/02/24 03:11:32;;;;;;;14.50;2.08;;;;;;;4.96;100.00;100167.16;5143588;28;20080;-75
2023/02/24 03:14:05;;;;;;;16.02;1.98;;;;;;;4.98;100.00;100170.56;5148567;28;20038;-73
2023/02/24 03:16:35;;;;;;;11.77;2.13;;;;;;;4.88;100.00;100158.66;5125580;28;20046;-76
2023/02/24 03:19:09;;;;;;;16.02;2.50;;;;;;;4.91;100.00;100154.28;5142294;28;20023;-75
2023/02/24 03:21:44;;;;;;;19.08;1.70;;;;;;;4.98;100.00;100161.03;5140310;28;20096;-75
2023/02/24 03:24:15;;;;;;;11.80;1.45;;;;;;;4.69;100.00;100158.19;5138189;28;20031;-76
2023/02/24 03:26:52;;;;;;;12.23;1.63;;;;;;;4.78;100.00;100155.41;5142248;28;20048;-74
2023/02/24 03:29:33;;;;;;;9.98;1.55;;;;;;;4.88;100.00;100153.50;5148211;28;20022;-73
2023/02/24 03:32:11;;;;;;;12.65;1.80;;;;;;;4.89;100.00;100143.13;5124531;28;20026;-74
2023/02/24 03:34:47;;;;;;;11.55;2.03;;;;;;;4.83;100.00;100144.97;5140189;28;20123;-74
2023/02/24 03:37:25;;;;;;;14.18;1.77;;;;;;;4.60;100.00;100137.63;5144697;28;20037;-75
2023/02/24 03:39:57;;;;;;;10.85;1.73;;;;;;;4.74;100.00;100143.41;5142928;28;20053;-72
2023/02/24 03:42:31;;;;;;;13.05;1.50;;;;;;;4.80;100.00;100130.34;5144744;28;20029;-74
2023/02/24 03:45:05;;;;;;;12.80;1.45;;;;;;;4.91;100.00;100136.16;5147546;28;20248;-73
2023/02/24 03:47:35;;;;;;;10.40;1.52;;;;;;;4.91;100.00;100125.81;5140704;28;20054;-73
2023/02/24 03:50:26;;;;;;;12.70;2.00;;;;;;;4.87;100.00;100126.78;5141573;28;20121;-74
2023/02/24 03:53:14;;;;;;;10.23;2.15;;;;;;;4.57;100.00;100134.25;5139857;28;20174;-73
2023/02/24 03:56:03;;;;;;;12.80;1.35;;;;;;;4.72;100.00;100127.06;5137346;28;20033;-74
2023/02/24 03:58:46;;;;;;;9.35;1.20;;;;;;;4.66;100.00;100126.31;5143008;28;20420;-73
2023/02/24 04:01:24;;;;;;;8.43;1.67;;;;;;;4.68;100.00;100111.63;5144642;28;20149;-73
2023/02/24 04:04:19;;;;;;;18.85;1.98;;;;;;;4.52;100.00;100118.84;5139803;28;20063;-75
2023/02/24 04:07:22;;;;;;;9.45;1.50;;;;;;;4.66;100.00;100108.22;5124943;28;20027;-73
2023/02/24 04:10:11;;;;;;;11.80;1.95;;;;;;;4.69;100.00;100101.25;5136092;28;20061;-74
2023/02/24 04:12:54;;;;;;;9.82;1.60;;;;;;;4.67;100.00;100105.56;5122711;28;20078;-73
2023/02/24 04:15:36;;;;;;;13.48;1.90;;;;;;;4.62;100.00;100104.81;5124047;28;20030;-77
2023/02/24 04:18:15;;;;;;;7.35;1.25;;;;;;;4.80;100.00;100099.28;5139399;28;20030;-75
2023/02/24 04:20:52;;;;;;;9.93;1.23;;;;;;;4.70;100.00;100092.59;5137594;28;20033;-73
2023/02/24 04:23:28;;;;;;;12.93;1.40;;;;;;;4.75;100.00;100085.59;5123647;28;20022;-72
2023/02/24 04:26:00;;;;;;;10.88;1.58;;;;;;;4.68;100.00;100086.63;5140958;28;20031;-73
2023/02/24 04:28:31;;;;;;;12.25;1.80;;;;;;;4.64;100.00;100082.34;5146257;28;20027;-74
2023/02/24 04:31:08;;;;;;;7.72;1.38;;;;;;;4.73;100.00;100081.31;5144322;28;20421;-73
2023/02/24 04:33:39;;;;;;;13.95;1.60;;;;;;;4.84;100.00;100076.78;5141176;28;20027;-72
2023/02/24 04:36:11;;;;;;;6.38;1.50;;;;;;;4.71;100.00;100073.59;5144057;28;20034;-75
2023/02/24 04:38:42;;;;;;;11.05;1.58;;;;;;;4.51;100.00;100073.16;5144467;28;20019;-75
2023/02/24 04:41:19;;;;;;;8.85;2.20;;;;;;;4.60;100.00;100067.78;5125551;28;20061;-75
2023/02/24 04:43:50;;;;;;;6.55;1.25;;;;;;;4.71;100.00;100067.56;5141838;28;20033;-74
2023/02/24 04:46:22;;;;;;;9.43;1.50;;;;;;;4.74;100.00;100073.53;5143137;28;20027;-77
2023/02/24 04:48:52;;;;;;;11.10;1.17;;;;;;;4.56;100.00;100067.88;5140073;28;20264;-73
2023/02/24 04:51:22;;;;;;;16.13;1.83;;;;;;;4.57;100.00;100065.25;5122892;28;20022;-73
2023/02/24 04:53:54;;;;;;;9.27;1.50;;;;;;;4.66;100.00;100059.88;5139399;28;20034;-76
2023/02/24 04:56:24;;;;;;;8.20;1.30;;;;;;;4.70;100.00;100051.19;5136396;28;20038;-74
2023/02/24 04:58:54;;;;;;;7.85;0.90;;;;;;;4.57;100.00;100054.91;5140953;28;20432;-72
2023/02/24 05:01:25;;;;;;;4.55;1.48;;;;;;;4.57;99.26;100043.69;5139921;28;20069;-74
2023/02/24 05:03:55;;;;;;;10.25;1.45;;;;;;;4.47;96.45;100053.38;5140322;28;20030;-76
2023/02/24 05:06:25;;;;;;;7.80;1.40;;;;;;;4.43;97.55;100056.91;5144202;28;20034;-76
2023/02/24 05:08:56;;;;;;;3.97;1.20;;;;;;;4.43;95.43;100051.72;5142363;28;20464;-74
2023/02/24 05:11:33;;;;;;;4.97;1.17;;;;;;;4.30;95.66;100029.56;5141766;28;20053;-75
2023/02/24 05:14:03;;;;;;;12.07;1.40;;;;;;;4.34;94.33;100035.53;5146453;28;20054;-73
2023/02/24 05:16:34;;;;;;;7.05;1.40;;;;;;;4.30;94.08;100033.91;5141060;28;20060;-73
2023/02/24 05:21:53;;;;;;;2.50;1.23;;;;;;;4.19;91.17;100021.19;5137568;28;20445;-73
2023/02/24 05:24:26;;;;;;;5.07;1.30;;;;;;;4.13;91.32;100015.28;5120349;28;20118;-72
2023/02/24 05:26:58;;;;;;;3.83;1.13;;;;;;;4.22;92.32;100021.13;5141141;28;20023;-73
2023/02/24 05:29:33;;;;;;;5.63;1.38;;;;;;;4.28;91.18;100018.41;5145258;28;20050;-71
2023/02/24 05:32:04;;;;;;;6.05;1.45;;;;;;;4.33;91.99;100011.41;5139407;28;20074;-73
2023/02/24 05:34:34;;;;;;;9.18;1.30;;;;;;;4.27;92.12;100002.94;5139294;28;20702;-73
2023/02/24 05:37:09;;;;;;;8.85;1.60;;;;;;;4.23;92.28;100001.28;5141204;28;20077;-73
2023/02/24 05:39:39;;;;;;;4.37;0.93;;;;;;;4.22;92.93;99990.09;5123602;28;20030;-74
2023/02/24 05:42:10;;;;;;;7.45;1.25;;;;;;;4.17;93.23;99997.09;5122295;28;20057;-73
2023/02/24 05:44:40;;;;;;;3.22;1.02;;;;;;;4.26;94.17;99986.56;5139853;28;20043;-71
2023/02/24 05:47:11;;;;;;;8.38;1.10;;;;;;;4.17;95.05;99983.31;5138253;28;20095;-73
2023/02/24 05:49:42;;;;;;;5.13;1.13;;;;;;;4.32;95.52;99980.41;5142097;28;20054;-73
2023/02/24 05:52:13;;;;;;;4.38;0.90;;;;;;;4.30;94.29;99983.00;5136722;28;20105;-73
2023/02/24 05:54:44;;;;;;;7.90;0.90;;;;;;;4.38;95.17;99980.28;5120437;28;20113;-73
2023/02/24 05:57:23;;;;;;;7.30;1.02;;;;;;;4.34;96.08;99968.31;5137344;28;20077;-72
2023/02/24 05:59:54;;;;;;;7.28;0.60;;;;;;;4.13;97.31;99969.56;5137302;28;20038;-74
2023/02/24 06:02:28;;;;;;;9.57;1.10;;;;;;;4.22;95.38;99976.28;5137953;28;20468;-73
2023/02/24 06:04:59;;;;;;;5.68;1.02;;;;;;;4.24;94.14;99972.81;5120580;28;20058;-74
2023/02/24 06:07:33;;;;;;;4.05;0.60;;;;;;;4.20;93.91;99960.84;5141129;28;20055;-72
2023/02/24 06:10:09;;;;;;;4.38;0.90;;;;;;;4.21;94.22;99957.34;5124383;28;20026;-74
2023/02/24 06:12:40;;;;;;;4.57;1.02;;;;;;;3.96;93.53;99965.63;5140869;28;20074;-73
2023/02/24 06:15:11;;;;;;;10.20;1.40;;;;;;;4.04;93.30;99961.13;5143534;28;20257;-74
2023/02/24 06:17:42;;;;;;;9.13;1.10;;;;;;;4.08;94.15;99955.88;5117792;28;20391;-73
2023/02/24 06:20:14;;;;;;;3.00;0.90;;;;;;;4.13;91.69;99946.31;5134515;28;20429;-74
2023/02/24 06:22:44;;;;;;;6.40;0.98;;;;;;;4.08;90.38;99949.84;5119774;28;20046;-76
2023/02/24 06:25:17;;;;;;;4.78;0.77;;;;;;;4.14;90.64;99940.25;5115557;28;20109;-73
2023/02/24 06:27:52;;;;;;;2.40;0.55;;;;;;;3.97;89.62;99939.72;5139726;28;20038;-75
2023/02/24 06:30:25;;;;;;;5.18;1.40;;;;;;;4.08;90.34;99930.03;5140570;28;20378;-73
2023/02/24 06:32:56;;;;;;;5.20;0.57;;;;;;;4.09;89.91;99923.97;5121278;28;20034;-74
2023/02/24 06:35:26;;;;;;;4.60;1.00;;;;;;;4.10;89.13;99911.94;5140372;28;20033;-74
2023/02/24 06:37:57;;;;;;;5.32;0.68;;;;;;;4.09;87.67;99911.06;5126704;28;20634;-73
2023/02/24 06:40:27;;;;;;;4.72;0.68;;;;;;;4.16;88.10;99906.63;5122771;28;20062;-74
2023/02/24 06:42:57;;;;;;;7.68;0.75;;;;;;;4.15;87.39;99912.69;5125150;28;20042;-75
2023/02/24 06:45:29;;;;;;;7.43;0.63;;;;;;;4.01;87.32;99905.22;5147145;28;20492;-75
2023/02/24 06:47:59;;;;;;;4.80;0.70;;;;;;;4.09;88.00;99908.47;5142637;28;20404;-74
2023/02/24 06:50:31;;;;;;;4.60;0.80;;;;;;;4.20;88.57;99903.94;5143178;28;20030;-74
2023/02/24 06:53:01;;;;;;;4.28;0.60;;;;;;;3.94;89.44;99890.69;5126278;28;20101;-73
2023/02/24 06:55:34;;;;;;;5.88;0.98;;;;;;;4.06;89.81;99887.88;5142295;28;20042;-75
2023/02/24 06:58:04;;;;;;;5.03;0.75;;;;;;;4.20;90.76;99887.56;5145057;28;20105;-73
2023/02/24 07:00:37;;;;;;;3.97;0.70;;;;;;;4.11;90.47;99882.59;5154057;23;20151;-77
2023/02/24 07:03:14;;;;;;;4.03;0.60;;;;;;;4.14;89.05;99882.53;5147535;28;20033;-77
2023/02/24 07:05:52;;;;;;;6.45;0.90;;;;;;;4.13;89.90;99873.91;5137835;28;20237;-77
2023/02/24 07:08:26;;;;;;;12.27;1.27;;;;;;;3.98;90.15;99875.97;5151600;28;20130;-76
2023/02/24 07:10:58;;;;;;;7.68;0.80;;;;;;;4.16;89.19;99865.25;5128671;28;20533;-77
2023/02/24 07:13:28;;;;;;;2.75;0.77;;;;;;;4.14;89.11;99873.03;5119388;28;20381;-77
2023/02/24 07:16:05;;;;;;;6.43;0.90;;;;;;;4.20;89.36;99856.53;5142635;28;20034;-77
2023/02/24 07:18:40;;;;;;;4.95;0.90;;;;;;;4.20;87.98;99857.41;5141817;28;20102;-77
2023/02/24 07:21:11;;;;;;;10.75;1.00;;;;;;;4.12;88.31;99858.44;5128881;28;20040;-76
2023/02/24 07:23:43;;;;;;;8.60;0.90;;;;;;;4.19;88.51;99855.72;5135213;28;20035;-77
2023/02/24 07:26:21;;;;;;;11.25;1.75;;;;;;;4.26;88.97;99849.50;5135446;28;20101;-77
2023/02/24 07:28:56;;;;;;;3.83;0.70;;;;;;;4.34;88.45;99839.84;5136495;28;20038;-76
2023/02/24 07:31:27;;;;;;;2.47;0.73;;;;;;;4.47;87.99;99841.25;5129433;28;20032;-76
2023/02/24 07:33:59;;;;;;;7.97;1.00;;;;;;;4.37;89.13;99838.91;5130771;28;20054;-77
2023/02/24 07:36:29;;;;;;;6.80;0.80;;;;;;;4.41;89.25;99841.41;5133405;28;20041;-77
2023/02/24 07:39:02;;;;;;;4.35;0.57;;;;;;;4.22;89.44;99827.19;5129672;28;20035;-77
2023/02/24 07:41:33;;;;;;;2.92;0.70;;;;;;;4.38;88.76;99838.03;5131864;28;20499;-77
2023/02/24 07:44:08;;;;;;;3.05;0.60;;;;;;;4.55;88.08;99823.84;5132403;28;20093;-76
2023/02/24 07:46:39;;;;;;;4.23;0.90;;;;;;;4.44;87.36;99812.88;5140016;28;20034;-77
2023/02/24 07:49:14;;;;;;;2.47;0.68;;;;;;;4.37;88.35;99824.25;5124186;28;20027;-76
2023/02/24 07:51:51;;;;;;;;;;;;;;;4.44;88.92;99815.47;5124662;29;20533;-77
2023/02/24 07:54:24;;;;;;;6.78;1.05;;;;;;;4.42;87.01;99817.25;5125408;28;19914;-76
2023/02/24 07:56:55;;;;;;;4.63;0.80;;;;;;;4.30;87.78;99809.75;5124407;28;20073;-77
2023/02/24 07:59:34;;;;;;;2.92;1.00;;;;;;;4.48;87.82;99796.41;5132227;28;20034;-77
2023/02/24 08:02:06;;;;;;;5.18;0.80;;;;;;;4.41;87.12;99805.19;5164244;28;20074;-76
2023/02/24 08:04:39;;;;;;;5.70;0.88;;;;;;;4.43;87.63;99792.25;5151476;28;20042;-77
2023/02/24 08:07:13;;;;;;;4.50;0.82;;;;;;;4.49;87.83;99784.31;5143795;28;20022;-76
2023/02/24 08:12:20;;;;;;;3.15;0.77;;;;;;;4.37;86.85;99779.44;5150691;28;20113;-77
2023/02/24 08:14:52;;;;;;;5.05;1.00;;;;;;;4.37;86.86;99775.13;5136231;28;20034;-76
2023/02/24 08:17:25;;;;;;;4.55;0.70;;;;;;;4.33;87.63;99770.88;5137127;28;20034;-75
2023/02/24 08:20:20;;;;;;;5.95;1.52;;;;;;;4.37;88.16;99771.69;5126437;28;20243;-76
2023/02/24 08:22:52;;;;;;;9.65;1.40;;;;;;;4.42;87.30;99762.06;5130823;28;20030;-77
2023/02/24 08:25:34;;;;;;;5.68;1.02;;;;;;;4.50;87.08;99747.22;5144812;28;20026;-77
2023/02/24 08:28:10;;;;;;;6.85;0.77;;;;;;;4.38;88.05;99755.28;5136124;28;20022;-78
2023/02/24 08:30:44;;;;;;;6.75;1.20;;;;;;;4.55;85.81;99746.22;5155536;28;20050;-78
2023/02/24 08:33:20;;;;;;;3.42;0.80;;;;;;;4.39;86.85;99739.72;5153527;28;20031;-77
2023/02/24 08:35:59;;;;;;;3.40;0.73;;;;;;;4.52;86.79;99746.31;5132050;28;20078;-77
2023/02/24 08:38:40;;;;;;;6.50;0.73;;;;;;;4.36;86.50;99738.94;5143571;28;20030;-77
2023/02/24 08:41:16;;;;;;;8.63;0.70;;;;;;;4.38;87.09;99738.03;5152522;28;20396;-77
2023/02/24 08:43:47;;;;;;;3.45;0.65;;;;;;;4.43;86.77;99731.00;5151503;28;20031;-78
2023/02/24 08:46:24;;;;;;;8.93;0.80;;;;;;;4.69;86.43;99717.41;5143778;28;20439;-77
2023/02/24 08:48:59;;;;;;;7.70;1.00;;;;;;;4.51;87.08;99717.88;5163485;28;20022;-77
2023/02/24 08:51:34;;;;;;;8.70;0.90;;;;;;;4.54;86.14;99710.91;5139286;28;20187;-77
2023/02/24 08:54:09;;;;;;;4.40;1.07;;;;;;;4.46;87.19;99707.66;5156376;28;20039;-77
2023/02/24 08:56:47;;;;;;;2.85;0.55;;;;;;;4.56;86.52;99700.50;5129578;28;20022;-77
2023/02/24 09:02:22;;;;;;;2.30;0.47;;;;;;;4.48;86.84;99703.28;5163031;28;20514;-77
2023/02/24 09:05:06;;;;;;;3.72;0.60;;;;;;;4.54;87.93;99699.69;5158111;28;20484;-77
2023/02/24 09:07:39;;;;;;;4.80;0.90;;;;;;;4.57;87.13;99689.25;5143294;28;20444;-77
2023/02/24 09:10:16;;;;;;;2.78;0.55;;;;;;;4.67;86.68;99680.38;5154121;28;20034;-78
2023/02/24 09:12:48;;;;;;;5.97;0.85;;;;;;;4.65;85.79;99669.22;5158096;28;20030;-77
2023/02/24 09:15:19;;;;;;;4.50;0.52;;;;;;;4.57;85.83;99681.50;5153173;28;20518;-77
2023/02/24 09:17:49;;;;;;;5.80;0.80;;;;;;;4.52;86.51;99670.44;5157735;28;20619;-79
2023/02/24 09:23:18;;;;;;;6.13;0.75;;;;;;;4.61;87.24;99668.44;5153762;28;20096;-74
2023/02/24 09:25:49;;;;;;;4.82;0.80;;;;;;;4.57;86.62;99660.81;5143815;28;20476;-77
2023/02/24 09:28:23;;;;;;;5.22;0.73;;;;;;;4.63;85.68;99661.50;5152453;28;20030;-77
2023/02/24 09:30:56;;;;;;;1.95;0.45;;;;;;;4.60;86.29;99660.75;5149120;28;20539;-77
2023/02/24 09:33:28;;;;;;;5.55;1.15;;;;;;;4.64;87.19;99662.34;5147481;28;20504;-77
2023/02/24 09:36:08;;;;;;;6.60;1.23;;;;;;;4.45;87.58;99649.03;5124563;28;20523;-77
2023/02/24 09:41:52;;;;;;;9.60;1.08;;;;;;;4.48;92.25;99645.53;5143855;28;20331;-77
2023/02/24 09:44:39;;;;;;;5.07;0.68;;;;;;;4.47;92.36;99649.84;5155355;28;20026;-77
2023/02/24 09:50:29;;;;;;;3.15;0.77;;;;;;;4.49;95.01;99639.47;5151490;28;20022;-77
2023/02/24 09:53:16;;;;;;;3.95;0.70;;;;;;;4.27;95.90;99641.75;5132094;28;20035;-77
2023/02/24 09:56:02;;;;;;;5.45;0.60;;;;;;;4.15;98.61;99642.06;5129122;28;20038;-77
2023/02/24 09:58:46;;;;;;;3.50;0.82;;;;;;;4.02;100.00;99645.84;5129867;28;20030;-77
2023/02/24 10:01:33;;;;;;;6.13;0.77;;;;;;;3.95;100.00;99627.94;5150595;28;20093;-76
2023/02/24 10:04:52;;;;;;;4.55;0.85;;;;;;;4.02;100.00;99637.22;5154948;28;20037;-77
2023/02/24 10:07:37;;;;;;;5.75;0.90;;;;;;;3.86;100.00;99629.00;5132152;28;20030;-78
2023/02/24 10:10:19;;;;;;;3.15;0.82;;;;;;;3.83;100.00;99631.69;5156816;28;20027;-77
2023/02/24 10:13:16;;;;;;;3.63;0.70;;;;;;;3.84;100.00;99624.75;5156988;28;20388;-75
2023/02/24 10:18:26;;;;;;;4.70;0.98;;;;;;;3.83;100.00;99615.31;5161582;28;20047;-77
2023/02/24 10:21:47;;;;;;;4.35;0.90;;;;;;;3.70;100.00;99612.19;5154385;28;20041;-78
2023/02/24 10:24:33;;;;;;;3.92;1.00;;;;;;;3.64;100.00;99601.13;5126470;28;20477;-76
2023/02/24 10:27:22;;;;;;;4.13;0.88;;;;;;;3.68;100.00;99602.75;5154967;28;20034;-77
2023/02/24 10:30:04;;;;;;;8.32;1.15;;;;;;;3.64;100.00;99591.63;5147221;28;20065;-76
2023/02/24 10:32:57;;;;;;;10.20;1.08;;;;;;;3.53;100.00;99584.19;5156617;28;20381;-77
2023/02/24 10:35:32;;;;;;;7.95;1.20;;;;;;;3.70;100.00;99581.19;5143498;28;20042;-78
2023/02/24 10:38:04;;;;;;;7.82;1.20;;;;;;;3.36;100.00;99583.72;5143198;28;20125;-77
2023/02/24 10:40:55;;;;;;;7.25;1.33;;;;;;;3.75;100.00;99574.16;5142797;28;20519;-76
2023/02/24 10:43:33;;;;;;;5.60;0.98;;;;;;;3.70;100.00;99576.00;5122587;28;20400;-77
2023/02/24 10:46:15;;;;;;;9.48;1.05;;;;;;;3.85;100.00;99565.31;5140741;28;20046;-77
2023/02/24 10:48:59;;;;;;;8.35;1.20;;;;;;;3.75;100.00;99563.81;5144424;28;20019;-77
2023/02/24 10:51:36;;;;;;;4.35;1.15;;;;;;;3.67;100.00;99551.97;5147828;28;20447;-77
2023/02/24 10:54:33;;;;;;;6.65;1.45;;;;;;;3.96;100.00;99545.19;5147859;28;21073;-78
2023/02/24 10:57:17;;;;;;;7.43;1.35;;;;;;;3.75;100.00;99545.75;5126569;28;20026;-78
2023/02/24 11:03:05;;;;;;;8.82;1.58;;;;;;;3.71;100.00;99536.38;5150604;28;20042;-79
2023/02/24 11:08:38;;;;;;;10.45;1.40;;;;;;;3.98;100.00;99514.16;5143718;28;20033;-77
2023/02/24 11:11:24;;;;;;;8.73;1.10;;;;;;;3.96;100.00;99511.59;5146519;28;20074;-79
2023/02/24 11:19:53;;;;;;;4.78;1.20;;;;;;;3.72;100.00;99498.47;5146719;28;20042;-77
2023/02/24 11:22:30;;;;;;;6.32;1.25;;;;;;;3.74;100.00;99494.97;5145196;28;20033;-78
2023/02/24 11:25:12;;;;;;;3.60;1.00;;;;;;;3.79;100.00;99490.50;5141168;28;20508;-77
2023/02/24 11:27:45;;;;;;;7.70;1.48;;;;;;;3.57;100.00;99477.34;5150046;28;20122;-77
2023/02/24 11:30:44;;;;;;;7.80;1.38;;;;;;;3.80;100.00;99468.94;5152827;28;20113;-77
2023/02/24 11:33:19;;;;;;;5.72;1.33;;;;;;;3.83;100.00;99463.72;5141550;28;20064;-78
2023/02/24 11:36:13;;;;;;;7.72;1.30;;;;;;;4.01;100.00;99452.03;5143050;28;20038;-77
2023/02/24 11:38:52;;;;;;;6.15;1.50;;;;;;;3.99;100.00;99439.16;5123194;28;20048;-77
2023/02/24 11:41:29;;;;;;;11.73;1.80;;;;;;;4.03;100.00;99434.75;5151447;28;20461;-77
2023/02/24 11:44:22;;;;;;;4.70;1.25;;;;;;;3.94;100.00;99425.50;5149353;28;20110;-77
2023/02/24 11:46:57;;;;;;;4.78;1.05;;;;;;;4.01;100.00;99419.31;5140942;28;20022;-79
2023/02/24 11:49:35;;;;;;;9.40;1.40;;;;;;;4.05;100.00;99414.88;5152069;28;20029;-77
2023/02/24 11:52:12;;;;;;;4.72;1.65;;;;;;;4.03;100.00;99407.19;5152334;28;20038;-78
2023/02/24 11:54:49;;;;;;;13.10;2.10;;;;;;;3.95;100.00;99401.38;5140924;28;20400;-78
2023/02/24 11:57:27;;;;;;;5.18;1.52;;;;;;;3.88;100.00;99393.81;5142913;28;20137;-77
2023/02/24 12:00:18;;;;;;;8.43;1.17;;;;;;;3.84;100.00;99384.47;5154596;28;20231;-77
2023/02/24 12:02:58;;;;;;;5.10;1.40;;;;;;;3.64;100.00;99373.84;5147478;28;20037;-76
2023/02/24 12:05:37;;;;;;;6.95;1.30;;;;;;;3.59;100.00;99378.28;5143624;28;20082;-78
2023/02/24 12:08:08;;;;;;;5.10;1.65;;;;;;;3.64;100.00;99377.25;5143477;28;20475;-77
2023/02/24 12:10:48;;;;;;;10.20;1.67;;;;;;;3.81;100.00;99367.31;5152423;28;20035;-77
2023/02/24 12:13:38;;;;;;;6.13;1.40;;;;;;;3.63;100.00;99354.91;5150604;28;20407;-77
2023/02/24 12:16:13;;;;;;;5.45;1.25;;;;;;;3.58;100.00;99355.09;5147215;28;20411;-79
2023/02/24 12:18:58;;;;;;;6.00;1.92;;;;;;;3.56;100.00;99347.34;5143062;28;20703;-77
2023/02/24 12:22:06;;;;;;;7.70;1.60;;;;;;;3.58;100.00;99347.34;5148432;28;20306;-77
2023/02/24 12:24:48;;;;;;;5.80;1.38;;;;;;;3.51;100.00;99338.91;5149916;28;20661;-77
2023/02/24 12:27:33;;;;;;;6.15;1.75;;;;;;;3.41;100.00;99331.44;5147055;28;20030;-78
2023/02/24 12:30:32;;;;;;;7.10;1.60;;;;;;;3.62;100.00;99332.53;5148480;28;20056;-78
2023/02/24 12:33:38;;;;;;;3.78;1.30;;;;;;;3.66;100.00;99330.72;5146509;28;20149;-77
2023/02/24 12:36:18;;;;;;;6.80;1.67;;;;;;;3.62;100.00;99324.81;5150025;28;20045;-77
2023/02/24 12:39:06;;;;;;;5.25;1.90;;;;;;;3.71;100.00;99324.56;5143659;28;20035;-77
2023/02/24 12:42:00;;;;;;;3.75;1.50;;;;;;;3.69;100.00;99310.84;5145074;28;20097;-78
2023/02/24 12:44:59;;;;;;;5.30;1.55;;;;;;;3.68;100.00;99314.31;5149804;28;20027;-77
2023/02/24 12:47:53;;;;;;;3.47;1.60;;;;;;;3.63;100.00;99308.41;5128547;28;20126;-77